Terminal Aerodrome Forecast
Issued by NWS Albany, NY

Home | Current Version | Previous Version | Text Only | Print | Product List | Glossary On
Versions: 1 2 3 4 5 6 7 8 9 10 11 12 13
510
FTUS41 KALY 221218 AAA
TAFALB
TAF AMD
KALB 221218Z 2212/2312 VRB05KT P6SM VCSH OVC120
     FM221400 17010KT P6SM -RA OVC060
     FM221700 17008KT 5SM -RA BR SCT015 OVC025
     FM222200 18006KT 5SM BR VCSH SCT008 OVC015=

USA.gov is the U.S. government's official web portal to all federal, state and local government web resources and services.